sensor_id;sensor_type;location;lat;lon;timestamp;temperature;humidity
52459;DHT22;38372;52.902;6.024;2023-10-08T00:00:04;15.00;99.90
52459;DHT22;38372;52.902;6.024;2023-10-08T00:02:50;14.90;99.90
52459;DHT22;38372;52.902;6.024;2023-10-08T00:05:16;14.70;99.90
52459;DHT22;38372;52.902;6.024;2023-10-08T00:07:42;14.60;99.90
52459;DHT22;38372;52.902;6.024;2023-10-08T00:10:09;14.50;99.90
52459;DHT22;38372;52.902;6.024;2023-10-08T00:12:34;14.50;99.90
52459;DHT22;38372;52.902;6.024;2023-10-08T00:15:00;14.40;99.90
52459;DHT22;38372;52.902;6.024;2023-10-08T00:17:26;14.40;99.90
52459;DHT22;38372;52.902;6.024;2023-10-08T00:19:52;14.30;99.90
52459;DHT22;38372;52.902;6.024;2023-10-08T00:22:19;14.30;99.90
52459;DHT22;38372;52.902;6.024;2023-10-08T00:24:45;14.20;99.90
52459;DHT22;38372;52.902;6.024;2023-10-08T00:27:12;14.20;99.90
52459;DHT22;38372;52.902;6.024;2023-10-08T00:29:40;14.10;99.90
52459;DHT22;38372;52.902;6.024;2023-10-08T00:32:09;14.10;99.90
52459;DHT22;38372;52.902;6.024;2023-10-08T00:34:39;14.10;99.90
52459;DHT22;38372;52.902;6.024;2023-10-08T00:37:08;14.00;99.90
52459;DHT22;38372;52.902;6.024;2023-10-08T00:39:39;14.00;99.90
52459;DHT22;38372;52.902;6.024;2023-10-08T00:42:06;14.00;99.90
52459;DHT22;38372;52.902;6.024;2023-10-08T00:44:33;13.90;99.90
52459;DHT22;38372;52.902;6.024;2023-10-08T00:47:05;13.90;99.90
52459;DHT22;38372;52.902;6.024;2023-10-08T00:49:32;13.90;99.90
52459;DHT22;38372;52.902;6.024;2023-10-08T00:52:14;13.80;99.90
52459;DHT22;38372;52.902;6.024;2023-10-08T00:54:42;13.90;99.90
52459;DHT22;38372;52.902;6.024;2023-10-08T00:57:19;13.80;99.90
52459;DHT22;38372;52.902;6.024;2023-10-08T00:59:48;13.80;99.90
52459;DHT22;38372;52.902;6.024;2023-10-08T01:02:22;13.80;99.90
52459;DHT22;38372;52.902;6.024;2023-10-08T01:04:55;13.70;99.90
52459;DHT22;38372;52.902;6.024;2023-10-08T01:07:21;13.70;99.90
52459;DHT22;38372;52.902;6.024;2023-10-08T01:09:49;13.70;99.90
52459;DHT22;38372;52.902;6.024;2023-10-08T01:12:25;13.70;99.90
52459;DHT22;38372;52.902;6.024;2023-10-08T01:14:54;13.80;99.90
52459;DHT22;38372;52.902;6.024;2023-10-08T01:17:21;13.80;99.90
52459;DHT22;38372;52.902;6.024;2023-10-08T01:19:52;13.70;99.90
52459;DHT22;38372;52.902;6.024;2023-10-08T01:22:25;13.70;99.90
52459;DHT22;38372;52.902;6.024;2023-10-08T01:24:54;13.70;99.90
52459;DHT22;38372;52.902;6.024;2023-10-08T01:27:20;13.70;99.90
52459;DHT22;38372;52.902;6.024;2023-10-08T01:29:51;13.70;99.90
52459;DHT22;38372;52.902;6.024;2023-10-08T01:32:20;13.60;99.90
52459;DHT22;38372;52.902;6.024;2023-10-08T01:34:48;13.60;99.90
52459;DHT22;38372;52.902;6.024;2023-10-08T01:37:16;13.60;99.90
52459;DHT22;38372;52.902;6.024;2023-10-08T01:39:48;13.60;99.90
52459;DHT22;38372;52.902;6.024;2023-10-08T01:42:18;13.60;99.90
52459;DHT22;38372;52.902;6.024;2023-10-08T01:44:48;13.60;99.90
52459;DHT22;38372;52.902;6.024;2023-10-08T01:47:19;13.60;99.90
52459;DHT22;38372;52.902;6.024;2023-10-08T01:49:46;13.60;99.90
52459;DHT22;38372;52.902;6.024;2023-10-08T01:52:12;13.60;99.90
52459;DHT22;38372;52.902;6.024;2023-10-08T01:54:43;13.60;99.90
52459;DHT22;38372;52.902;6.024;2023-10-08T01:57:10;13.60;99.90
52459;DHT22;38372;52.902;6.024;2023-10-08T01:59:37;13.60;99.90
52459;DHT22;38372;52.902;6.024;2023-10-08T02:02:04;13.60;99.90
52459;DHT22;38372;52.902;6.024;2023-10-08T02:04:34;13.60;99.90
52459;DHT22;38372;52.902;6.024;2023-10-08T02:07:03;13.60;99.90
52459;DHT22;38372;52.902;6.024;2023-10-08T02:09:30;13.60;99.90
52459;DHT22;38372;52.902;6.024;2023-10-08T02:11:58;13.60;99.90
52459;DHT22;38372;52.902;6.024;2023-10-08T02:14:24;13.60;99.90
52459;DHT22;38372;52.902;6.024;2023-10-08T02:16:50;13.60;99.90
52459;DHT22;38372;52.902;6.024;2023-10-08T02:19:22;13.60;99.90
52459;DHT22;38372;52.902;6.024;2023-10-08T02:21:56;13.60;99.90
52459;DHT22;38372;52.902;6.024;2023-10-08T02:24:24;13.50;99.90
52459;DHT22;38372;52.902;6.024;2023-10-08T02:26:54;13.60;99.90
52459;DHT22;38372;52.902;6.024;2023-10-08T02:29:26;13.60;99.90
52459;DHT22;38372;52.902;6.024;2023-10-08T02:31:52;13.60;99.90
52459;DHT22;38372;52.902;6.024;2023-10-08T02:34:20;13.60;99.90
52459;DHT22;38372;52.902;6.024;2023-10-08T02:36:46;13.60;99.90
52459;DHT22;38372;52.902;6.024;2023-10-08T02:39:13;13.60;99.90
52459;DHT22;38372;52.902;6.024;2023-10-08T02:41:43;13.60;99.90
52459;DHT22;38372;52.902;6.024;2023-10-08T02:44:15;13.50;99.90
52459;DHT22;38372;52.902;6.024;2023-10-08T02:46:42;13.50;99.90
52459;DHT22;38372;52.902;6.024;2023-10-08T02:49:10;13.50;99.90
52459;DHT22;38372;52.902;6.024;2023-10-08T02:51:40;13.50;99.90
52459;DHT22;38372;52.902;6.024;2023-10-08T02:54:10;13.50;99.90
52459;DHT22;38372;52.902;6.024;2023-10-08T02:56:45;13.50;99.90
52459;DHT22;38372;52.902;6.024;2023-10-08T02:59:12;13.40;99.90
52459;DHT22;38372;52.902;6.024;2023-10-08T03:01:39;13.40;99.90
52459;DHT22;38372;52.902;6.024;2023-10-08T03:04:09;13.40;99.90
52459;DHT22;38372;52.902;6.024;2023-10-08T03:06:47;13.40;99.90
52459;DHT22;38372;52.902;6.024;2023-10-08T03:09:20;13.40;99.90
52459;DHT22;38372;52.902;6.024;2023-10-08T03:11:50;13.40;99.90
52459;DHT22;38372;52.902;6.024;2023-10-08T03:14:17;13.40;99.90
52459;DHT22;38372;52.902;6.024;2023-10-08T03:16:54;13.30;99.90
52459;DHT22;38372;52.902;6.024;2023-10-08T03:19:23;13.30;99.90
52459;DHT22;38372;52.902;6.024;2023-10-08T03:21:50;13.30;99.90
52459;DHT22;38372;52.902;6.024;2023-10-08T03:24:19;13.30;99.90
52459;DHT22;38372;52.902;6.024;2023-10-08T03:27:05;13.30;99.90
52459;DHT22;38372;52.902;6.024;2023-10-08T03:29:46;13.30;99.90
52459;DHT22;38372;52.902;6.024;2023-10-08T03:32:13;13.30;99.90
52459;DHT22;38372;52.902;6.024;2023-10-08T03:34:50;13.30;99.90
52459;DHT22;38372;52.902;6.024;2023-10-08T03:37:21;13.30;99.90
52459;DHT22;38372;52.902;6.024;2023-10-08T03:39:55;13.30;99.90
52459;DHT22;38372;52.902;6.024;2023-10-08T03:42:48;13.30;99.90
52459;DHT22;38372;52.902;6.024;2023-10-08T03:45:15;13.20;99.90
52459;DHT22;38372;52.902;6.024;2023-10-08T03:47:49;13.20;99.90
52459;DHT22;38372;52.902;6.024;2023-10-08T03:50:31;13.20;99.90
52459;DHT22;38372;52.902;6.024;2023-10-08T03:53:07;13.20;99.90
52459;DHT22;38372;52.902;6.024;2023-10-08T03:55:39;13.20;99.90
52459;DHT22;38372;52.902;6.024;2023-10-08T03:58:09;13.20;99.90
52459;DHT22;38372;52.902;6.024;2023-10-08T04:00:39;13.20;99.90
52459;DHT22;38372;52.902;6.024;2023-10-08T04:03:11;13.10;99.90
52459;DHT22;38372;52.902;6.024;2023-10-08T04:05:38;13.20;99.90
52459;DHT22;38372;52.902;6.024;2023-10-08T04:08:25;13.20;99.90
52459;DHT22;38372;52.902;6.024;2023-10-08T04:11:11;13.20;99.90
52459;DHT22;38372;52.902;6.024;2023-10-08T04:13:55;13.20;99.90
52459;DHT22;38372;52.902;6.024;2023-10-08T04:16:20;13.20;99.90
52459;DHT22;38372;52.902;6.024;2023-10-08T04:18:47;13.20;99.90
52459;DHT22;38372;52.902;6.024;2023-10-08T04:21:17;13.20;99.90
52459;DHT22;38372;52.902;6.024;2023-10-08T04:23:46;13.20;99.90
52459;DHT22;38372;52.902;6.024;2023-10-08T04:26:18;13.30;99.90
52459;DHT22;38372;52.902;6.024;2023-10-08T04:28:53;13.20;99.90
52459;DHT22;38372;52.902;6.024;2023-10-08T04:31:26;13.30;99.90
52459;DHT22;38372;52.902;6.024;2023-10-08T04:34:05;13.30;99.90
52459;DHT22;38372;52.902;6.024;2023-10-08T04:36:48;13.30;99.90
52459;DHT22;38372;52.902;6.024;2023-10-08T04:39:23;13.30;99.90
52459;DHT22;38372;52.902;6.024;2023-10-08T04:41:57;13.30;99.90
52459;DHT22;38372;52.902;6.024;2023-10-08T04:44:24;13.30;99.90
52459;DHT22;38372;52.902;6.024;2023-10-08T04:46:52;13.30;99.90
52459;DHT22;38372;52.902;6.024;2023-10-08T04:49:19;13.30;99.90
52459;DHT22;38372;52.902;6.024;2023-10-08T04:52:12;13.30;99.90
52459;DHT22;38372;52.902;6.024;2023-10-08T04:54:42;13.30;99.90
52459;DHT22;38372;52.902;6.024;2023-10-08T04:57:17;13.30;99.90
52459;DHT22;38372;52.902;6.024;2023-10-08T04:59:44;13.30;99.90
52459;DHT22;38372;52.902;6.024;2023-10-08T05:02:12;13.30;99.90
52459;DHT22;38372;52.902;6.024;2023-10-08T05:04:46;13.30;99.90
52459;DHT22;38372;52.902;6.024;2023-10-08T05:07:25;13.30;99.90
52459;DHT22;38372;52.902;6.024;2023-10-08T05:10:10;13.30;99.90
52459;DHT22;38372;52.902;6.024;2023-10-08T05:12:47;13.30;99.90
52459;DHT22;38372;52.902;6.024;2023-10-08T05:15:27;13.30;99.90
52459;DHT22;38372;52.902;6.024;2023-10-08T05:18:01;13.30;99.90
52459;DHT22;38372;52.902;6.024;2023-10-08T05:20:49;13.30;99.90
52459;DHT22;38372;52.902;6.024;2023-10-08T05:23:17;13.30;99.90
52459;DHT22;38372;52.902;6.024;2023-10-08T05:25:51;13.20;99.90
52459;DHT22;38372;52.902;6.024;2023-10-08T05:28:32;13.20;99.90
52459;DHT22;38372;52.902;6.024;2023-10-08T05:31:08;13.20;99.90
52459;DHT22;38372;52.902;6.024;2023-10-08T05:33:40;13.20;99.90
52459;DHT22;38372;52.902;6.024;2023-10-08T05:36:25;13.20;99.90
52459;DHT22;38372;52.902;6.024;2023-10-08T05:39:01;13.20;99.90
52459;DHT22;38372;52.902;6.024;2023-10-08T05:41:41;13.20;99.90
52459;DHT22;38372;52.902;6.024;2023-10-08T05:44:20;13.20;99.90
52459;DHT22;38372;52.902;6.024;2023-10-08T05:46:46;13.10;99.90
52459;DHT22;38372;52.902;6.024;2023-10-08T05:49:22;13.10;99.90
52459;DHT22;38372;52.902;6.024;2023-10-08T05:51:57;13.10;99.90
52459;DHT22;38372;52.902;6.024;2023-10-08T05:54:30;13.10;99.90
52459;DHT22;38372;52.902;6.024;2023-10-08T05:59:31;13.10;99.90
52459;DHT22;38372;52.902;6.024;2023-10-08T06:02:06;13.10;99.90
52459;DHT22;38372;52.902;6.024;2023-10-08T06:04:52;13.10;99.90
52459;DHT22;38372;52.902;6.024;2023-10-08T06:07:49;13.10;99.90
52459;DHT22;38372;52.902;6.024;2023-10-08T06:10:21;13.10;99.90
52459;DHT22;38372;52.902;6.024;2023-10-08T06:13:10;13.10;99.90
52459;DHT22;38372;52.902;6.024;2023-10-08T06:15:43;13.10;99.90
52459;DHT22;38372;52.902;6.024;2023-10-08T06:18:18;13.10;99.90
52459;DHT22;38372;52.902;6.024;2023-10-08T06:20:45;13.10;99.90
52459;DHT22;38372;52.902;6.024;2023-10-08T06:23:12;13.10;99.90
52459;DHT22;38372;52.902;6.024;2023-10-08T06:25:41;13.10;99.90
52459;DHT22;38372;52.902;6.024;2023-10-08T06:30:37;13.10;99.90
52459;DHT22;38372;52.902;6.024;2023-10-08T06:33:07;13.10;99.90
52459;DHT22;38372;52.902;6.024;2023-10-08T06:35:33;13.20;99.90
52459;DHT22;38372;52.902;6.024;2023-10-08T06:37:59;13.20;99.90
52459;DHT22;38372;52.902;6.024;2023-10-08T06:40:27;13.20;99.90
52459;DHT22;38372;52.902;6.024;2023-10-08T06:43:02;13.20;99.90
52459;DHT22;38372;52.902;6.024;2023-10-08T06:45:44;13.20;99.90
52459;DHT22;38372;52.902;6.024;2023-10-08T06:48:11;13.20;99.90
52459;DHT22;38372;52.902;6.024;2023-10-08T06:50:44;13.20;99.90
52459;DHT22;38372;52.902;6.024;2023-10-08T06:53:11;13.20;99.90
52459;DHT22;38372;52.902;6.024;2023-10-08T06:55:40;13.20;99.90
52459;DHT22;38372;52.902;6.024;2023-10-08T06:58:07;13.20;99.90
52459;DHT22;38372;52.902;6.024;2023-10-08T07:00:37;13.20;99.90
52459;DHT22;38372;52.902;6.024;2023-10-08T07:03:08;13.20;99.90
52459;DHT22;38372;52.902;6.024;2023-10-08T07:05:36;13.20;99.90
52459;DHT22;38372;52.902;6.024;2023-10-08T07:08:07;13.20;99.90
52459;DHT22;38372;52.902;6.024;2023-10-08T07:10:33;13.30;99.90
52459;DHT22;38372;52.902;6.024;2023-10-08T07:13:02;13.30;99.90
52459;DHT22;38372;52.902;6.024;2023-10-08T07:15:34;13.30;99.90
52459;DHT22;38372;52.902;6.024;2023-10-08T07:18:05;13.40;99.90
52459;DHT22;38372;52.902;6.024;2023-10-08T07:20:37;13.40;99.90
52459;DHT22;38372;52.902;6.024;2023-10-08T07:23:08;13.50;99.90
52459;DHT22;38372;52.902;6.024;2023-10-08T07:26:01;13.50;99.90
52459;DHT22;38372;52.902;6.024;2023-10-08T07:28:42;13.60;99.90
52459;DHT22;38372;52.902;6.024;2023-10-08T07:31:15;13.60;99.90
52459;DHT22;38372;52.902;6.024;2023-10-08T07:33:47;13.60;99.90
52459;DHT22;38372;52.902;6.024;2023-10-08T07:36:13;13.60;99.90
52459;DHT22;38372;52.902;6.024;2023-10-08T07:38:44;13.60;99.90
52459;DHT22;38372;52.902;6.024;2023-10-08T07:41:13;13.60;99.90
52459;DHT22;38372;52.902;6.024;2023-10-08T07:43:43;13.60;99.90
52459;DHT22;38372;52.902;6.024;2023-10-08T07:46:09;13.60;99.90
52459;DHT22;38372;52.902;6.024;2023-10-08T07:48:36;13.70;99.90
52459;DHT22;38372;52.902;6.024;2023-10-08T07:51:02;13.70;99.90
52459;DHT22;38372;52.902;6.024;2023-10-08T07:53:29;13.70;99.90
52459;DHT22;38372;52.902;6.024;2023-10-08T07:56:06;13.70;99.90
52459;DHT22;38372;52.902;6.024;2023-10-08T07:58:33;13.80;99.90
52459;DHT22;38372;52.902;6.024;2023-10-08T08:01:08;13.80;99.90
52459;DHT22;38372;52.902;6.024;2023-10-08T08:03:36;13.80;99.90
52459;DHT22;38372;52.902;6.024;2023-10-08T08:06:11;13.90;99.90
52459;DHT22;38372;52.902;6.024;2023-10-08T08:08:39;14.00;99.90
52459;DHT22;38372;52.902;6.024;2023-10-08T08:11:06;14.00;99.90
52459;DHT22;38372;52.902;6.024;2023-10-08T08:13:41;14.10;99.90
52459;DHT22;38372;52.902;6.024;2023-10-08T08:16:08;14.20;99.90
52459;DHT22;38372;52.902;6.024;2023-10-08T08:18:44;14.20;99.90
52459;DHT22;38372;52.902;6.024;2023-10-08T08:21:12;14.30;99.90
52459;DHT22;38372;52.902;6.024;2023-10-08T08:23:48;14.40;99.90
52459;DHT22;38372;52.902;6.024;2023-10-08T08:28:59;14.30;99.90
52459;DHT22;38372;52.902;6.024;2023-10-08T08:31:30;14.40;99.90
52459;DHT22;38372;52.902;6.024;2023-10-08T08:33:57;14.40;99.90
52459;DHT22;38372;52.902;6.024;2023-10-08T08:36:27;14.50;99.90
52459;DHT22;38372;52.902;6.024;2023-10-08T08:38:53;14.50;99.90
52459;DHT22;38372;52.902;6.024;2023-10-08T08:41:20;14.60;99.90
52459;DHT22;38372;52.902;6.024;2023-10-08T08:43:50;14.70;99.90
52459;DHT22;38372;52.902;6.024;2023-10-08T08:46:27;14.70;99.90
52459;DHT22;38372;52.902;6.024;2023-10-08T08:48:54;14.70;99.90
52459;DHT22;38372;52.902;6.024;2023-10-08T08:51:22;14.80;99.90
52459;DHT22;38372;52.902;6.024;2023-10-08T08:53:49;14.90;99.90
52459;DHT22;38372;52.902;6.024;2023-10-08T08:56:15;14.90;99.90
52459;DHT22;38372;52.902;6.024;2023-10-08T08:58:42;14.90;99.90
52459;DHT22;38372;52.902;6.024;2023-10-08T09:01:12;14.90;99.90
52459;DHT22;38372;52.902;6.024;2023-10-08T09:03:39;15.00;99.90
52459;DHT22;38372;52.902;6.024;2023-10-08T09:06:05;15.00;99.90
52459;DHT22;38372;52.902;6.024;2023-10-08T09:08:36;15.10;99.90
52459;DHT22;38372;52.902;6.024;2023-10-08T09:11:02;15.20;99.90
52459;DHT22;38372;52.902;6.024;2023-10-08T09:13:31;15.20;99.90
52459;DHT22;38372;52.902;6.024;2023-10-08T09:16:11;15.30;99.90
52459;DHT22;38372;52.902;6.024;2023-10-08T09:18:37;15.30;99.90
52459;DHT22;38372;52.902;6.024;2023-10-08T09:21:15;15.40;99.90
52459;DHT22;38372;52.902;6.024;2023-10-08T09:23:49;15.40;99.90
52459;DHT22;38372;52.902;6.024;2023-10-08T09:26:25;15.50;99.90
52459;DHT22;38372;52.902;6.024;2023-10-08T09:28:52;15.60;99.90
52459;DHT22;38372;52.902;6.024;2023-10-08T09:31:19;15.80;99.90
52459;DHT22;38372;52.902;6.024;2023-10-08T09:33:56;16.00;99.90
52459;DHT22;38372;52.902;6.024;2023-10-08T09:36:22;16.30;99.90
52459;DHT22;38372;52.902;6.024;2023-10-08T09:39:01;16.70;99.90
52459;DHT22;38372;52.902;6.024;2023-10-08T09:41:31;17.10;99.90
52459;DHT22;38372;52.902;6.024;2023-10-08T09:43:58;17.40;99.90
52459;DHT22;38372;52.902;6.024;2023-10-08T09:46:35;17.50;99.90
52459;DHT22;38372;52.902;6.024;2023-10-08T09:49:05;17.80;99.90
52459;DHT22;38372;52.902;6.024;2023-10-08T09:51:36;18.10;99.90
52459;DHT22;38372;52.902;6.024;2023-10-08T09:56:36;17.90;99.90
52459;DHT22;38372;52.902;6.024;2023-10-08T09:59:02;17.70;99.90
52459;DHT22;38372;52.902;6.024;2023-10-08T10:01:28;17.80;99.90
52459;DHT22;38372;52.902;6.024;2023-10-08T10:03:57;18.10;99.90
52459;DHT22;38372;52.902;6.024;2023-10-08T10:06:26;18.40;99.90
52459;DHT22;38372;52.902;6.024;2023-10-08T10:08:56;18.70;99.90
52459;DHT22;38372;52.902;6.024;2023-10-08T10:11:30;18.80;99.90
52459;DHT22;38372;52.902;6.024;2023-10-08T10:14:00;18.80;99.90
52459;DHT22;38372;52.902;6.024;2023-10-08T10:16:26;18.70;99.90
52459;DHT22;38372;52.902;6.024;2023-10-08T10:18:56;18.70;99.90
52459;DHT22;38372;52.902;6.024;2023-10-08T10:21:33;18.70;99.90
52459;DHT22;38372;52.902;6.024;2023-10-08T10:23:59;18.50;99.90
52459;DHT22;38372;52.902;6.024;2023-10-08T10:26:31;18.30;99.90
52459;DHT22;38372;52.902;6.024;2023-10-08T10:31:45;17.90;99.90
52459;DHT22;38372;52.902;6.024;2023-10-08T10:34:25;17.80;99.90
52459;DHT22;38372;52.902;6.024;2023-10-08T10:36:56;17.80;99.90
52459;DHT22;38372;52.902;6.024;2023-10-08T10:39:25;17.80;99.90
52459;DHT22;38372;52.902;6.024;2023-10-08T10:42:01;17.90;99.90
52459;DHT22;38372;52.902;6.024;2023-10-08T10:44:28;18.00;99.90
52459;DHT22;38372;52.902;6.024;2023-10-08T10:46:56;18.00;99.90
52459;DHT22;38372;52.902;6.024;2023-10-08T10:49:50;18.20;99.90
52459;DHT22;38372;52.902;6.024;2023-10-08T10:52:28;18.40;99.90
52459;DHT22;38372;52.902;6.024;2023-10-08T10:55:05;18.80;99.90
52459;DHT22;38372;52.902;6.024;2023-10-08T10:57:46;19.40;99.90
52459;DHT22;38372;52.902;6.024;2023-10-08T11:00:24;20.10;99.90
52459;DHT22;38372;52.902;6.024;2023-10-08T11:03:19;20.40;99.90
52459;DHT22;38372;52.902;6.024;2023-10-08T11:05:58;20.50;99.90
52459;DHT22;38372;52.902;6.024;2023-10-08T11:08:32;20.90;99.90
52459;DHT22;38372;52.902;6.024;2023-10-08T11:11:01;21.30;99.90
52459;DHT22;38372;52.902;6.024;2023-10-08T11:13:33;21.20;99.90
52459;DHT22;38372;52.902;6.024;2023-10-08T11:16:07;20.80;99.90
52459;DHT22;38372;52.902;6.024;2023-10-08T11:18:35;20.20;99.90
52459;DHT22;38372;52.902;6.024;2023-10-08T11:21:09;19.60;99.90
52459;DHT22;38372;52.902;6.024;2023-10-08T11:23:48;18.90;99.90
52459;DHT22;38372;52.902;6.024;2023-10-08T11:26:25;18.30;99.90
52459;DHT22;38372;52.902;6.024;2023-10-08T11:29:05;17.80;99.90
52459;DHT22;38372;52.902;6.024;2023-10-08T11:31:32;17.40;99.90
52459;DHT22;38372;52.902;6.024;2023-10-08T11:34:02;17.20;99.90
52459;DHT22;38372;52.902;6.024;2023-10-08T11:36:36;17.10;99.90
52459;DHT22;38372;52.902;6.024;2023-10-08T11:39:14;17.00;99.90
52459;DHT22;38372;52.902;6.024;2023-10-08T11:42:02;17.00;99.90
52459;DHT22;38372;52.902;6.024;2023-10-08T11:44:33;16.90;99.90
52459;DHT22;38372;52.902;6.024;2023-10-08T11:47:02;16.90;99.90
52459;DHT22;38372;52.902;6.024;2023-10-08T11:49:40;17.00;99.90
52459;DHT22;38372;52.902;6.024;2023-10-08T11:52:13;17.00;99.90
52459;DHT22;38372;52.902;6.024;2023-10-08T11:54:46;17.00;99.90
52459;DHT22;38372;52.902;6.024;2023-10-08T11:57:14;17.10;99.90
52459;DHT22;38372;52.902;6.024;2023-10-08T11:59:45;17.20;99.90
52459;DHT22;38372;52.902;6.024;2023-10-08T12:02:12;17.30;99.90
52459;DHT22;38372;52.902;6.024;2023-10-08T12:04:42;17.30;99.90
52459;DHT22;38372;52.902;6.024;2023-10-08T12:07:11;17.40;99.90
52459;DHT22;38372;52.902;6.024;2023-10-08T12:09:37;17.30;99.90
52459;DHT22;38372;52.902;6.024;2023-10-08T12:12:05;17.40;99.90
52459;DHT22;38372;52.902;6.024;2023-10-08T12:14:38;17.70;99.90
52459;DHT22;38372;52.902;6.024;2023-10-08T12:17:04;18.10;99.90
52459;DHT22;38372;52.902;6.024;2023-10-08T12:19:39;18.20;99.90
52459;DHT22;38372;52.902;6.024;2023-10-08T12:22:08;18.40;99.90
52459;DHT22;38372;52.902;6.024;2023-10-08T12:24:34;18.60;99.90
52459;DHT22;38372;52.902;6.024;2023-10-08T12:27:00;18.80;99.90
52459;DHT22;38372;52.902;6.024;2023-10-08T12:29:28;19.10;99.90
52459;DHT22;38372;52.902;6.024;2023-10-08T12:31:56;19.10;99.90
52459;DHT22;38372;52.902;6.024;2023-10-08T12:34:25;19.00;99.90
52459;DHT22;38372;52.902;6.024;2023-10-08T12:36:51;19.00;99.90
52459;DHT22;38372;52.902;6.024;2023-10-08T12:39:17;19.30;99.90
52459;DHT22;38372;52.902;6.024;2023-10-08T12:41:50;19.60;99.90
52459;DHT22;38372;52.902;6.024;2023-10-08T12:44:19;19.90;99.90
52459;DHT22;38372;52.902;6.024;2023-10-08T12:46:44;19.80;99.90
52459;DHT22;38372;52.902;6.024;2023-10-08T12:49:14;19.80;99.90
52459;DHT22;38372;52.902;6.024;2023-10-08T12:51:40;19.70;99.90
52459;DHT22;38372;52.902;6.024;2023-10-08T12:54:07;19.60;99.90
52459;DHT22;38372;52.902;6.024;2023-10-08T12:56:36;19.30;99.90
52459;DHT22;38372;52.902;6.024;2023-10-08T12:59:05;18.80;99.90
52459;DHT22;38372;52.902;6.024;2023-10-08T13:01:36;18.40;99.90
52459;DHT22;38372;52.902;6.024;2023-10-08T13:04:06;18.10;99.90
52459;DHT22;38372;52.902;6.024;2023-10-08T13:06:41;17.90;99.90
52459;DHT22;38372;52.902;6.024;2023-10-08T13:09:10;17.70;99.90
52459;DHT22;38372;52.902;6.024;2023-10-08T13:11:40;17.60;99.90
52459;DHT22;38372;52.902;6.024;2023-10-08T13:14:06;17.50;99.90
52459;DHT22;38372;52.902;6.024;2023-10-08T13:16:32;17.40;99.90
52459;DHT22;38372;52.902;6.024;2023-10-08T13:18:58;17.40;99.90
52459;DHT22;38372;52.902;6.024;2023-10-08T13:21:27;17.30;99.90
52459;DHT22;38372;52.902;6.024;2023-10-08T13:23:57;17.30;99.90
52459;DHT22;38372;52.902;6.024;2023-10-08T13:26:26;17.30;99.90
52459;DHT22;38372;52.902;6.024;2023-10-08T13:28:57;17.30;99.90
52459;DHT22;38372;52.902;6.024;2023-10-08T13:31:24;17.20;99.90
52459;DHT22;38372;52.902;6.024;2023-10-08T13:33:50;17.20;99.90
52459;DHT22;38372;52.902;6.024;2023-10-08T13:36:18;17.30;99.90
52459;DHT22;38372;52.902;6.024;2023-10-08T13:38:44;17.30;99.90
52459;DHT22;38372;52.902;6.024;2023-10-08T13:41:14;17.30;99.90
52459;DHT22;38372;52.902;6.024;2023-10-08T13:43:49;17.20;99.90
52459;DHT22;38372;52.902;6.024;2023-10-08T13:46:19;17.20;99.90
52459;DHT22;38372;52.902;6.024;2023-10-08T13:48:49;17.10;99.90
52459;DHT22;38372;52.902;6.024;2023-10-08T13:51:20;17.00;99.90
52459;DHT22;38372;52.902;6.024;2023-10-08T13:53:50;16.90;99.90
52459;DHT22;38372;52.902;6.024;2023-10-08T13:56:20;17.00;99.90
52459;DHT22;38372;52.902;6.024;2023-10-08T13:58:53;16.90;99.90
52459;DHT22;38372;52.902;6.024;2023-10-08T14:01:29;16.90;99.90
52459;DHT22;38372;52.902;6.024;2023-10-08T14:03:55;16.90;99.90
52459;DHT22;38372;52.902;6.024;2023-10-08T14:06:30;16.90;99.90
52459;DHT22;38372;52.902;6.024;2023-10-08T14:08:57;16.90;99.90
52459;DHT22;38372;52.902;6.024;2023-10-08T14:11:23;16.80;99.90
52459;DHT22;38372;52.902;6.024;2023-10-08T14:13:56;16.80;99.90
52459;DHT22;38372;52.902;6.024;2023-10-08T14:16:22;16.80;99.90
52459;DHT22;38372;52.902;6.024;2023-10-08T14:18:55;16.80;99.90
52459;DHT22;38372;52.902;6.024;2023-10-08T14:21:22;16.70;99.90
52459;DHT22;38372;52.902;6.024;2023-10-08T14:23:56;16.70;99.90
52459;DHT22;38372;52.902;6.024;2023-10-08T14:26:29;16.60;99.90
52459;DHT22;38372;52.902;6.024;2023-10-08T14:29:02;16.60;99.90
52459;DHT22;38372;52.902;6.024;2023-10-08T14:31:33;16.50;99.90
52459;DHT22;38372;52.902;6.024;2023-10-08T14:34:04;16.50;99.90
52459;DHT22;38372;52.902;6.024;2023-10-08T14:36:56;16.40;99.90
52459;DHT22;38372;52.902;6.024;2023-10-08T14:39:41;16.40;99.90
52459;DHT22;38372;52.902;6.024;2023-10-08T14:42:25;16.40;99.90
52459;DHT22;38372;52.902;6.024;2023-10-08T14:45:09;16.40;99.90
52459;DHT22;38372;52.902;6.024;2023-10-08T14:47:39;16.40;99.90
52459;DHT22;38372;52.902;6.024;2023-10-08T14:50:06;16.40;99.90
52459;DHT22;38372;52.902;6.024;2023-10-08T14:52:38;16.40;99.90
52459;DHT22;38372;52.902;6.024;2023-10-08T14:55:04;16.40;99.90
52459;DHT22;38372;52.902;6.024;2023-10-08T14:57:30;16.30;99.90
52459;DHT22;38372;52.902;6.024;2023-10-08T14:59:56;16.30;99.90
52459;DHT22;38372;52.902;6.024;2023-10-08T15:02:23;16.30;99.90
52459;DHT22;38372;52.902;6.024;2023-10-08T15:04:54;16.30;99.90
52459;DHT22;38372;52.902;6.024;2023-10-08T15:07:22;16.20;99.90
52459;DHT22;38372;52.902;6.024;2023-10-08T15:09:48;16.20;99.90
52459;DHT22;38372;52.902;6.024;2023-10-08T15:12:15;16.20;99.90
52459;DHT22;38372;52.902;6.024;2023-10-08T15:14:43;16.20;99.90
52459;DHT22;38372;52.902;6.024;2023-10-08T15:17:09;16.20;99.90
52459;DHT22;38372;52.902;6.024;2023-10-08T15:19:35;16.10;99.90
52459;DHT22;38372;52.902;6.024;2023-10-08T15:22:01;16.00;99.90
52459;DHT22;38372;52.902;6.024;2023-10-08T15:24:28;16.00;99.90
52459;DHT22;38372;52.902;6.024;2023-10-08T15:26:55;15.90;99.90
52459;DHT22;38372;52.902;6.024;2023-10-08T15:29:23;15.90;99.90
52459;DHT22;38372;52.902;6.024;2023-10-08T15:31:53;15.80;99.90
52459;DHT22;38372;52.902;6.024;2023-10-08T15:34:20;15.80;99.90
52459;DHT22;38372;52.902;6.024;2023-10-08T15:36:46;15.80;99.90
52459;DHT22;38372;52.902;6.024;2023-10-08T15:39:12;15.80;99.90
52459;DHT22;38372;52.902;6.024;2023-10-08T15:41:39;15.80;99.90
52459;DHT22;38372;52.902;6.024;2023-10-08T15:44:07;15.70;99.90
52459;DHT22;38372;52.902;6.024;2023-10-08T15:46:33;15.70;99.90
52459;DHT22;38372;52.902;6.024;2023-10-08T15:49:02;15.60;99.90
52459;DHT22;38372;52.902;6.024;2023-10-08T15:51:31;15.60;99.90
52459;DHT22;38372;52.902;6.024;2023-10-08T15:54:00;15.60;99.90
52459;DHT22;38372;52.902;6.024;2023-10-08T15:56:29;15.50;99.90
52459;DHT22;38372;52.902;6.024;2023-10-08T15:58:55;15.50;99.90
52459;DHT22;38372;52.902;6.024;2023-10-08T16:01:22;15.50;99.90
52459;DHT22;38372;52.902;6.024;2023-10-08T16:03:48;15.50;99.90
52459;DHT22;38372;52.902;6.024;2023-10-08T16:06:14;15.40;99.90